sensor_id;sensor_type;location;lat;lon;timestamp;pressure;altitude;pressure_sealevel;temperature;humidity
9538;BME280;4807;48.024;11.726;2022-10-31T00:02:12;95463.06;;;9.52;85.64
9538;BME280;4807;48.024;11.726;2022-10-31T00:05:20;95465.72;;;9.67;85.20
9538;BME280;4807;48.024;11.726;2022-10-31T00:08:28;95463.81;;;9.46;85.32
9538;BME280;4807;48.024;11.726;2022-10-31T00:11:36;95473.31;;;9.41;85.43
9538;BME280;4807;48.024;11.726;2022-10-31T00:14:45;95468.63;;;9.28;85.51
9538;BME280;4807;48.024;11.726;2022-10-31T00:17:54;95470.16;;;9.23;85.81
9538;BME280;4807;48.024;11.726;2022-10-31T00:21:04;95469.78;;;9.26;85.53
9538;BME280;4807;48.024;11.726;2022-10-31T00:24:13;95468.03;;;9.18;85.57
9538;BME280;4807;48.024;11.726;2022-10-31T00:27:21;95462.75;;;9.33;85.31
9538;BME280;4807;48.024;11.726;2022-10-31T00:30:30;95461.19;;;9.24;85.58
9538;BME280;4807;48.024;11.726;2022-10-31T00:33:41;95467.50;;;9.23;85.46
9538;BME280;4807;48.024;11.726;2022-10-31T00:36:49;95465.09;;;9.13;85.50
9538;BME280;4807;48.024;11.726;2022-10-31T00:39:58;95456.47;;;9.11;85.81
9538;BME280;4807;48.024;11.726;2022-10-31T00:43:06;95450.34;;;9.10;85.51
9538;BME280;4807;48.024;11.726;2022-10-31T00:46:15;95452.47;;;9.15;86.05
9538;BME280;4807;48.024;11.726;2022-10-31T00:49:25;95451.16;;;9.11;85.83
9538;BME280;4807;48.024;11.726;2022-10-31T00:52:33;95454.81;;;9.10;85.55
9538;BME280;4807;48.024;11.726;2022-10-31T00:55:42;95453.25;;;9.01;85.79
9538;BME280;4807;48.024;11.726;2022-10-31T00:58:50;95454.97;;;8.94;86.31
9538;BME280;4807;48.024;11.726;2022-10-31T01:02:00;95453.88;;;9.03;85.55
9538;BME280;4807;48.024;11.726;2022-10-31T01:05:10;95451.22;;;9.03;85.92
9538;BME280;4807;48.024;11.726;2022-10-31T01:08:18;95442.91;;;9.06;86.08
9538;BME280;4807;48.024;11.726;2022-10-31T01:11:30;95445.84;;;9.11;86.29
9538;BME280;4807;48.024;11.726;2022-10-31T01:14:44;95439.72;;;9.10;86.01
9538;BME280;4807;48.024;11.726;2022-10-31T01:17:53;95441.91;;;9.07;86.44
9538;BME280;4807;48.024;11.726;2022-10-31T01:24:24;95449.22;;;9.05;85.79
9538;BME280;4807;48.024;11.726;2022-10-31T01:27:34;95448.22;;;9.06;85.50
9538;BME280;4807;48.024;11.726;2022-10-31T01:30:42;95441.25;;;9.05;86.23
9538;BME280;4807;48.024;11.726;2022-10-31T01:33:51;95443.69;;;9.14;85.48
9538;BME280;4807;48.024;11.726;2022-10-31T01:37:00;95449.50;;;9.10;85.24
9538;BME280;4807;48.024;11.726;2022-10-31T01:40:11;95441.84;;;9.15;84.43
9538;BME280;4807;48.024;11.726;2022-10-31T01:43:20;95450.47;;;8.94;85.13
9538;BME280;4807;48.024;11.726;2022-10-31T01:46:38;95447.44;;;8.83;85.32
9538;BME280;4807;48.024;11.726;2022-10-31T01:49:52;95444.41;;;8.86;85.85
9538;BME280;4807;48.024;11.726;2022-10-31T01:53:02;95432.44;;;8.90;85.50
9538;BME280;4807;48.024;11.726;2022-10-31T01:56:16;95439.03;;;8.94;85.47
9538;BME280;4807;48.024;11.726;2022-10-31T01:59:29;95434.53;;;8.94;85.08
9538;BME280;4807;48.024;11.726;2022-10-31T02:02:41;95440.69;;;8.95;85.31
9538;BME280;4807;48.024;11.726;2022-10-31T02:05:51;95441.41;;;8.89;85.62
9538;BME280;4807;48.024;11.726;2022-10-31T02:09:04;95438.97;;;8.79;85.41
9538;BME280;4807;48.024;11.726;2022-10-31T02:12:16;95431.59;;;8.89;84.59
9538;BME280;4807;48.024;11.726;2022-10-31T02:15:26;95437.69;;;8.98;84.06
9538;BME280;4807;48.024;11.726;2022-10-31T02:18:34;95425.91;;;8.92;83.12
9538;BME280;4807;48.024;11.726;2022-10-31T02:21:49;95432.56;;;8.73;84.04
9538;BME280;4807;48.024;11.726;2022-10-31T02:25:29;95426.84;;;8.62;84.21
9538;BME280;4807;48.024;11.726;2022-10-31T02:29:27;95433.13;;;8.61;84.40
9538;BME280;4807;48.024;11.726;2022-10-31T02:33:14;95440.00;;;8.55;84.03
9538;BME280;4807;48.024;11.726;2022-10-31T02:36:28;95436.28;;;8.64;83.38
9538;BME280;4807;48.024;11.726;2022-10-31T02:39:52;95448.84;;;8.48;84.42
9538;BME280;4807;48.024;11.726;2022-10-31T02:43:26;95442.34;;;8.50;84.74
9538;BME280;4807;48.024;11.726;2022-10-31T02:46:41;95444.69;;;8.45;84.00
9538;BME280;4807;48.024;11.726;2022-10-31T02:50:03;95448.75;;;8.33;85.12
9538;BME280;4807;48.024;11.726;2022-10-31T02:53:15;95444.75;;;8.29;85.01
9538;BME280;4807;48.024;11.726;2022-10-31T02:56:23;95444.97;;;8.19;85.34
9538;BME280;4807;48.024;11.726;2022-10-31T02:59:34;95438.03;;;8.18;84.96
9538;BME280;4807;48.024;11.726;2022-10-31T03:02:59;95443.16;;;8.20;85.08
9538;BME280;4807;48.024;11.726;2022-10-31T03:06:20;95442.84;;;8.15;85.32
9538;BME280;4807;48.024;11.726;2022-10-31T03:09:42;95442.84;;;8.15;85.67
9538;BME280;4807;48.024;11.726;2022-10-31T03:13:08;95439.19;;;8.16;85.70
9538;BME280;4807;48.024;11.726;2022-10-31T03:16:25;95444.84;;;8.13;85.46
9538;BME280;4807;48.024;11.726;2022-10-31T03:19:43;95439.25;;;8.08;85.36
9538;BME280;4807;48.024;11.726;2022-10-31T03:22:57;95447.53;;;8.04;84.94
9538;BME280;4807;48.024;11.726;2022-10-31T03:26:09;95446.28;;;8.23;83.16
9538;BME280;4807;48.024;11.726;2022-10-31T03:29:23;95441.25;;;8.05;82.93
9538;BME280;4807;48.024;11.726;2022-10-31T03:32:39;95450.25;;;7.88;83.85
9538;BME280;4807;48.024;11.726;2022-10-31T03:35:53;95442.38;;;7.72;84.72
9538;BME280;4807;48.024;11.726;2022-10-31T03:39:09;95451.88;;;7.58;84.68
9538;BME280;4807;48.024;11.726;2022-10-31T03:42:24;95449.38;;;7.57;84.89
9538;BME280;4807;48.024;11.726;2022-10-31T03:45:37;95452.84;;;7.57;85.18
9538;BME280;4807;48.024;11.726;2022-10-31T03:48:47;95449.06;;;7.60;85.59
9538;BME280;4807;48.024;11.726;2022-10-31T03:52:00;95454.00;;;7.63;86.39
9538;BME280;4807;48.024;11.726;2022-10-31T03:55:18;95450.31;;;7.72;86.69
9538;BME280;4807;48.024;11.726;2022-10-31T03:58:33;95453.94;;;7.79;85.68
9538;BME280;4807;48.024;11.726;2022-10-31T04:01:49;95441.34;;;7.81;85.77
9538;BME280;4807;48.024;11.726;2022-10-31T04:05:01;95442.50;;;7.79;85.91
9538;BME280;4807;48.024;11.726;2022-10-31T04:08:17;95445.97;;;7.79;85.72
9538;BME280;4807;48.024;11.726;2022-10-31T04:11:33;95443.84;;;7.75;85.74
9538;BME280;4807;48.024;11.726;2022-10-31T04:15:05;95441.72;;;7.78;85.79
9538;BME280;4807;48.024;11.726;2022-10-31T04:18:14;95441.03;;;7.76;85.58
9538;BME280;4807;48.024;11.726;2022-10-31T04:21:27;95441.03;;;7.76;85.72
9538;BME280;4807;48.024;11.726;2022-10-31T04:24:40;95435.41;;;7.71;85.05
9538;BME280;4807;48.024;11.726;2022-10-31T04:27:54;95442.72;;;7.69;85.58
9538;BME280;4807;48.024;11.726;2022-10-31T04:31:03;95437.59;;;7.68;85.52
9538;BME280;4807;48.024;11.726;2022-10-31T04:34:15;95435.47;;;7.55;85.22
9538;BME280;4807;48.024;11.726;2022-10-31T04:37:24;95443.75;;;7.60;85.44
9538;BME280;4807;48.024;11.726;2022-10-31T04:40:32;95446.72;;;7.65;84.90
9538;BME280;4807;48.024;11.726;2022-10-31T04:44:14;95453.84;;;7.56;84.87
9538;BME280;4807;48.024;11.726;2022-10-31T04:47:26;95453.22;;;7.46;85.62
9538;BME280;4807;48.024;11.726;2022-10-31T04:50:35;95455.06;;;7.38;85.34
9538;BME280;4807;48.024;11.726;2022-10-31T04:53:43;95453.50;;;7.68;84.39
9538;BME280;4807;48.024;11.726;2022-10-31T04:57:07;95457.47;;;7.63;84.47
9538;BME280;4807;48.024;11.726;2022-10-31T05:00:21;95456.72;;;7.31;84.84
9538;BME280;4807;48.024;11.726;2022-10-31T05:03:30;95453.13;;;7.07;85.31
9538;BME280;4807;48.024;11.726;2022-10-31T05:06:39;95459.25;;;7.00;86.04
9538;BME280;4807;48.024;11.726;2022-10-31T05:09:48;95457.78;;;6.97;86.38
9538;BME280;4807;48.024;11.726;2022-10-31T05:13:00;95456.75;;;6.90;86.03
9538;BME280;4807;48.024;11.726;2022-10-31T05:16:30;95452.81;;;6.86;86.52
9538;BME280;4807;48.024;11.726;2022-10-31T05:20:01;95454.09;;;6.98;86.26
9538;BME280;4807;48.024;11.726;2022-10-31T05:23:29;95446.16;;;7.14;85.10
9538;BME280;4807;48.024;11.726;2022-10-31T05:26:39;95452.63;;;7.04;85.85
9538;BME280;4807;48.024;11.726;2022-10-31T05:29:49;95448.50;;;7.01;85.64
9538;BME280;4807;48.024;11.726;2022-10-31T05:32:59;95443.19;;;6.93;86.55
9538;BME280;4807;48.024;11.726;2022-10-31T05:36:44;95443.38;;;6.92;86.88
9538;BME280;4807;48.024;11.726;2022-10-31T05:40:02;95442.53;;;6.91;86.94
9538;BME280;4807;48.024;11.726;2022-10-31T05:43:14;95440.88;;;6.98;86.48
9538;BME280;4807;48.024;11.726;2022-10-31T05:46:24;95443.53;;;6.98;86.75
9538;BME280;4807;48.024;11.726;2022-10-31T05:50:10;95446.16;;;7.06;86.18
9538;BME280;4807;48.024;11.726;2022-10-31T05:53:26;95443.19;;;7.01;86.36
9538;BME280;4807;48.024;11.726;2022-10-31T05:56:34;95436.59;;;7.05;86.34
9538;BME280;4807;48.024;11.726;2022-10-31T05:59:44;95442.88;;;7.04;86.88
9538;BME280;4807;48.024;11.726;2022-10-31T06:03:00;95442.88;;;7.04;86.01
9538;BME280;4807;48.024;11.726;2022-10-31T06:06:22;95444.53;;;7.05;86.64
9538;BME280;4807;48.024;11.726;2022-10-31T06:09:31;95441.88;;;7.05;86.31
9538;BME280;4807;48.024;11.726;2022-10-31T06:12:40;95440.53;;;7.09;87.00
9538;BME280;4807;48.024;11.726;2022-10-31T06:16:09;95445.84;;;7.09;86.40
9538;BME280;4807;48.024;11.726;2022-10-31T06:19:19;95443.50;;;7.14;86.17
9538;BME280;4807;48.024;11.726;2022-10-31T06:26:23;95446.47;;;7.36;85.32
9538;BME280;4807;48.024;11.726;2022-10-31T06:29:33;95448.78;;;7.31;85.65
9538;BME280;4807;48.024;11.726;2022-10-31T06:32:47;95442.97;;;7.35;84.99
9538;BME280;4807;48.024;11.726;2022-10-31T06:35:56;95449.25;;;7.50;84.83
9538;BME280;4807;48.024;11.726;2022-10-31T06:39:05;95445.25;;;7.46;85.18
9538;BME280;4807;48.024;11.726;2022-10-31T06:42:17;95439.13;;;7.54;84.97
9538;BME280;4807;48.024;11.726;2022-10-31T06:45:26;95440.94;;;7.61;85.01
9538;BME280;4807;48.024;11.726;2022-10-31T06:48:52;95439.69;;;7.80;84.07
9538;BME280;4807;48.024;11.726;2022-10-31T06:52:20;95443.13;;;7.89;85.01
9538;BME280;4807;48.024;11.726;2022-10-31T06:55:34;95449.81;;;8.16;83.18
9538;BME280;4807;48.024;11.726;2022-10-31T06:58:43;95453.72;;;8.28;83.39
9538;BME280;4807;48.024;11.726;2022-10-31T07:01:57;95451.41;;;8.33;83.72
9538;BME280;4807;48.024;11.726;2022-10-31T07:05:06;95446.88;;;8.41;83.03
9538;BME280;4807;48.024;11.726;2022-10-31T07:08:15;95449.50;;;8.72;81.18
9538;BME280;4807;48.024;11.726;2022-10-31T07:11:27;95446.28;;;8.77;81.90
9538;BME280;4807;48.024;11.726;2022-10-31T07:14:38;95448.38;;;8.90;81.26
9538;BME280;4807;48.024;11.726;2022-10-31T07:17:46;95446.09;;;9.24;79.39
9538;BME280;4807;48.024;11.726;2022-10-31T07:20:58;95444.72;;;9.43;78.75
9538;BME280;4807;48.024;11.726;2022-10-31T07:24:07;95447.75;;;9.40;80.13
9538;BME280;4807;48.024;11.726;2022-10-31T07:27:37;95447.59;;;9.71;78.68
9538;BME280;4807;48.024;11.726;2022-10-31T07:30:54;95448.94;;;9.81;78.54
9538;BME280;4807;48.024;11.726;2022-10-31T07:34:03;95448.22;;;9.87;79.35
9538;BME280;4807;48.024;11.726;2022-10-31T07:37:32;95448.31;;;10.23;77.19
9538;BME280;4807;48.024;11.726;2022-10-31T07:40:42;95446.06;;;10.42;77.70
9538;BME280;4807;48.024;11.726;2022-10-31T07:43:52;95451.81;;;10.60;76.94
9538;BME280;4807;48.024;11.726;2022-10-31T07:47:43;95448.13;;;10.82;78.23
9538;BME280;4807;48.024;11.726;2022-10-31T07:51:11;95443.81;;;11.02;77.60
9538;BME280;4807;48.024;11.726;2022-10-31T07:54:55;95449.22;;;11.37;75.19
9538;BME280;4807;48.024;11.726;2022-10-31T07:58:05;95438.13;;;11.61;74.43
9538;BME280;4807;48.024;11.726;2022-10-31T08:01:18;95436.19;;;11.76;74.12
9538;BME280;4807;48.024;11.726;2022-10-31T08:04:45;95439.19;;;12.01;73.03
9538;BME280;4807;48.024;11.726;2022-10-31T08:08:20;95429.88;;;12.25;72.51
9538;BME280;4807;48.024;11.726;2022-10-31T08:11:28;95428.75;;;12.60;71.20
9538;BME280;4807;48.024;11.726;2022-10-31T08:14:37;95416.91;;;12.96;72.60
9538;BME280;4807;48.024;11.726;2022-10-31T08:17:47;95415.47;;;13.07;74.71
9538;BME280;4807;48.024;11.726;2022-10-31T08:20:57;95404.84;;;13.13;73.55
9538;BME280;4807;48.024;11.726;2022-10-31T08:24:06;95409.75;;;13.23;74.50
9538;BME280;4807;48.024;11.726;2022-10-31T08:27:18;95404.63;;;13.34;73.71
9538;BME280;4807;48.024;11.726;2022-10-31T08:30:29;95399.03;;;13.49;74.17
9538;BME280;4807;48.024;11.726;2022-10-31T08:33:57;95392.88;;;13.62;70.94
9538;BME280;4807;48.024;11.726;2022-10-31T08:37:23;95402.88;;;13.80;71.34
9538;BME280;4807;48.024;11.726;2022-10-31T08:40:34;95398.94;;;13.95;71.12
9538;BME280;4807;48.024;11.726;2022-10-31T08:43:47;95390.44;;;14.18;69.33
9538;BME280;4807;48.024;11.726;2022-10-31T08:46:55;95383.31;;;14.37;68.25
9538;BME280;4807;48.024;11.726;2022-10-31T08:50:05;95385.69;;;14.65;67.74
9538;BME280;4807;48.024;11.726;2022-10-31T08:53:19;95386.41;;;14.78;67.25
9538;BME280;4807;48.024;11.726;2022-10-31T08:56:41;95383.47;;;14.86;68.32
9538;BME280;4807;48.024;11.726;2022-10-31T09:00:06;95379.66;;;15.01;68.10
9538;BME280;4807;48.024;11.726;2022-10-31T09:03:33;95379.13;;;15.17;68.42
9538;BME280;4807;48.024;11.726;2022-10-31T09:06:41;95373.81;;;15.35;68.36
9538;BME280;4807;48.024;11.726;2022-10-31T09:10:12;95378.47;;;15.46;69.79
9538;BME280;4807;48.024;11.726;2022-10-31T09:13:23;95374.06;;;15.77;68.72
9538;BME280;4807;48.024;11.726;2022-10-31T09:16:52;95367.06;;;15.94;68.21
9538;BME280;4807;48.024;11.726;2022-10-31T09:20:10;95366.34;;;16.05;63.35
9538;BME280;4807;48.024;11.726;2022-10-31T09:23:21;95363.69;;;16.35;62.32
9538;BME280;4807;48.024;11.726;2022-10-31T09:26:33;95358.03;;;16.55;60.79
9538;BME280;4807;48.024;11.726;2022-10-31T09:30:08;95366.25;;;16.60;60.85
9538;BME280;4807;48.024;11.726;2022-10-31T09:33:18;95351.81;;;16.72;60.24
9538;BME280;4807;48.024;11.726;2022-10-31T09:36:39;95345.44;;;16.85;58.24
9538;BME280;4807;48.024;11.726;2022-10-31T09:39:53;95345.13;;;16.93;57.75
9538;BME280;4807;48.024;11.726;2022-10-31T09:43:24;95346.19;;;17.15;55.81
9538;BME280;4807;48.024;11.726;2022-10-31T09:46:54;95343.44;;;17.34;54.91
9538;BME280;4807;48.024;11.726;2022-10-31T09:50:18;95338.16;;;17.50;55.73
9538;BME280;4807;48.024;11.726;2022-10-31T09:53:37;95328.78;;;17.53;55.06
9538;BME280;4807;48.024;11.726;2022-10-31T09:56:52;95339.44;;;17.48;56.00
9538;BME280;4807;48.024;11.726;2022-10-31T10:00:04;95332.28;;;17.53;56.33
9538;BME280;4807;48.024;11.726;2022-10-31T10:03:31;95330.91;;;17.63;55.95
9538;BME280;4807;48.024;11.726;2022-10-31T10:06:58;95328.69;;;17.71;54.73
9538;BME280;4807;48.024;11.726;2022-10-31T10:10:34;95320.09;;;17.98;54.04
9538;BME280;4807;48.024;11.726;2022-10-31T10:14:31;95325.28;;;17.87;52.83
9538;BME280;4807;48.024;11.726;2022-10-31T10:17:53;95314.41;;;17.82;53.70
9538;BME280;4807;48.024;11.726;2022-10-31T10:21:23;95320.94;;;17.86;53.23
9538;BME280;4807;48.024;11.726;2022-10-31T10:24:58;95322.13;;;17.90;53.37
9538;BME280;4807;48.024;11.726;2022-10-31T10:28:20;95315.09;;;17.89;53.18
9538;BME280;4807;48.024;11.726;2022-10-31T10:31:38;95323.25;;;17.95;53.20
9538;BME280;4807;48.024;11.726;2022-10-31T10:34:54;95323.13;;;18.01;52.44
9538;BME280;4807;48.024;11.726;2022-10-31T10:38:16;95315.50;;;18.10;52.31
9538;BME280;4807;48.024;11.726;2022-10-31T10:41:33;95307.59;;;18.32;52.96
9538;BME280;4807;48.024;11.726;2022-10-31T10:44:46;95313.97;;;18.42;52.68
9538;BME280;4807;48.024;11.726;2022-10-31T10:48:36;95305.97;;;18.30;50.15
9538;BME280;4807;48.024;11.726;2022-10-31T10:51:57;95310.72;;;18.40;51.23
9538;BME280;4807;48.024;11.726;2022-10-31T10:55:35;95306.81;;;18.48;51.48
9538;BME280;4807;48.024;11.726;2022-10-31T10:58:47;95301.00;;;18.67;51.93
9538;BME280;4807;48.024;11.726;2022-10-31T11:01:56;95289.41;;;18.84;51.76
9538;BME280;4807;48.024;11.726;2022-10-31T11:05:20;95286.31;;;19.09;50.82
9538;BME280;4807;48.024;11.726;2022-10-31T11:08:35;95288.72;;;19.05;49.42
9538;BME280;4807;48.024;11.726;2022-10-31T11:11:43;95273.06;;;18.90;49.86
9538;BME280;4807;48.024;11.726;2022-10-31T11:14:56;95277.75;;;19.28;50.62
9538;BME280;4807;48.024;11.726;2022-10-31T11:18:20;95277.72;;;19.45;49.83
9538;BME280;4807;48.024;11.726;2022-10-31T11:21:36;95269.53;;;19.57;49.55
9538;BME280;4807;48.024;11.726;2022-10-31T11:24:46;95257.44;;;19.42;49.42
9538;BME280;4807;48.024;11.726;2022-10-31T11:28:03;95256.69;;;19.47;49.59
9538;BME280;4807;48.024;11.726;2022-10-31T11:31:13;95257.78;;;19.13;50.28
9538;BME280;4807;48.024;11.726;2022-10-31T11:34:30;95264.09;;;19.18;50.17
9538;BME280;4807;48.024;11.726;2022-10-31T11:37:43;95259.81;;;19.05;51.18
9538;BME280;4807;48.024;11.726;2022-10-31T11:40:58;95257.44;;;19.59;50.27
9538;BME280;4807;48.024;11.726;2022-10-31T11:44:16;95258.63;;;19.68;49.64
9538;BME280;4807;48.024;11.726;2022-10-31T11:47:29;95252.47;;;19.73;49.06
9538;BME280;4807;48.024;11.726;2022-10-31T11:50:41;95249.72;;;19.68;49.26
9538;BME280;4807;48.024;11.726;2022-10-31T11:53:54;95247.13;;;20.00;48.79
9538;BME280;4807;48.024;11.726;2022-10-31T11:57:27;95237.03;;;20.34;48.78
9538;BME280;4807;48.024;11.726;2022-10-31T12:00:38;95233.03;;;20.19;48.41
9538;BME280;4807;48.024;11.726;2022-10-31T12:04:02;95234.16;;;20.45;48.43
9538;BME280;4807;48.024;11.726;2022-10-31T12:07:14;95235.03;;;20.02;48.39
9538;BME280;4807;48.024;11.726;2022-10-31T12:10:33;95228.69;;;20.40;49.53
9538;BME280;4807;48.024;11.726;2022-10-31T12:14:03;95227.78;;;20.56;48.57
9538;BME280;4807;48.024;11.726;2022-10-31T12:17:19;95225.22;;;20.45;48.26
9538;BME280;4807;48.024;11.726;2022-10-31T12:20:47;95231.72;;;20.22;49.31
9538;BME280;4807;48.024;11.726;2022-10-31T12:24:12;95222.66;;;20.11;48.39
9538;BME280;4807;48.024;11.726;2022-10-31T12:27:37;95217.97;;;19.80;48.96
9538;BME280;4807;48.024;11.726;2022-10-31T12:31:11;95215.66;;;19.67;50.63
9538;BME280;4807;48.024;11.726;2022-10-31T12:35:05;95209.09;;;19.63;50.53
9538;BME280;4807;48.024;11.726;2022-10-31T12:38:33;95199.88;;;19.59;51.21
9538;BME280;4807;48.024;11.726;2022-10-31T12:41:52;95202.16;;;19.67;51.61
9538;BME280;4807;48.024;11.726;2022-10-31T12:45:37;95199.19;;;19.68;51.49
9538;BME280;4807;48.024;11.726;2022-10-31T12:49:23;95195.25;;;19.76;51.29
9538;BME280;4807;48.024;11.726;2022-10-31T12:52:51;95188.19;;;19.75;51.90
9538;BME280;4807;48.024;11.726;2022-10-31T12:56:28;95182.03;;;19.79;51.95
9538;BME280;4807;48.024;11.726;2022-10-31T12:59:45;95169.47;;;19.90;52.44
9538;BME280;4807;48.024;11.726;2022-10-31T13:03:02;95173.38;;;20.04;51.62
9538;BME280;4807;48.024;11.726;2022-10-31T13:06:20;95162.94;;;19.86;51.75
9538;BME280;4807;48.024;11.726;2022-10-31T13:09:38;95158.19;;;19.98;52.35
9538;BME280;4807;48.024;11.726;2022-10-31T13:12:59;95148.28;;;19.82;52.96
9538;BME280;4807;48.024;11.726;2022-10-31T13:16:15;95151.13;;;19.92;52.45
9538;BME280;4807;48.024;11.726;2022-10-31T13:19:30;95147.03;;;19.90;51.73
9538;BME280;4807;48.024;11.726;2022-10-31T13:22:46;95138.81;;;19.79;52.93
9538;BME280;4807;48.024;11.726;2022-10-31T13:25:59;95147.09;;;19.73;52.24
9538;BME280;4807;48.024;11.726;2022-10-31T13:29:19;95148.63;;;19.64;52.21
9538;BME280;4807;48.024;11.726;2022-10-31T13:32:41;95149.00;;;19.51;52.39
9538;BME280;4807;48.024;11.726;2022-10-31T13:35:59;95138.91;;;19.46;53.40
9538;BME280;4807;48.024;11.726;2022-10-31T13:39:30;95132.34;;;19.37;54.19
9538;BME280;4807;48.024;11.726;2022-10-31T13:42:52;95132.50;;;19.30;53.93
9538;BME280;4807;48.024;11.726;2022-10-31T13:46:23;95134.03;;;19.21;54.90
9538;BME280;4807;48.024;11.726;2022-10-31T13:49:39;95142.03;;;19.16;55.18
9538;BME280;4807;48.024;11.726;2022-10-31T13:52:48;95129.16;;;19.01;55.93
9538;BME280;4807;48.024;11.726;2022-10-31T13:56:14;95124.25;;;18.98;56.16
9538;BME280;4807;48.024;11.726;2022-10-31T13:59:25;95118.56;;;18.95;56.66
9538;BME280;4807;48.024;11.726;2022-10-31T14:02:36;95118.72;;;18.88;57.53
9538;BME280;4807;48.024;11.726;2022-10-31T14:05:53;95116.53;;;18.85;57.19
9538;BME280;4807;48.024;11.726;2022-10-31T14:09:02;95112.03;;;18.74;57.47
9538;BME280;4807;48.024;11.726;2022-10-31T14:12:25;95108.44;;;18.68;58.79
9538;BME280;4807;48.024;11.726;2022-10-31T14:15:38;95112.03;;;18.57;58.97
9538;BME280;4807;48.024;11.726;2022-10-31T14:18:58;95100.59;;;18.50;59.18
9538;BME280;4807;48.024;11.726;2022-10-31T14:22:20;95114.31;;;18.49;59.60
9538;BME280;4807;48.024;11.726;2022-10-31T14:25:32;95107.84;;;18.50;59.72
9538;BME280;4807;48.024;11.726;2022-10-31T14:28:42;95101.84;;;18.59;59.93
9538;BME280;4807;48.024;11.726;2022-10-31T14:32:03;95100.78;;;18.60;60.86
9538;BME280;4807;48.024;11.726;2022-10-31T14:35:18;95097.59;;;18.63;60.30
9538;BME280;4807;48.024;11.726;2022-10-31T14:38:42;95093.75;;;18.59;60.15
9538;BME280;4807;48.024;11.726;2022-10-31T14:42:12;95084.25;;;18.57;60.94
9538;BME280;4807;48.024;11.726;2022-10-31T14:45:36;95081.31;;;18.58;60.84
9538;BME280;4807;48.024;11.726;2022-10-31T14:49:10;95079.78;;;18.62;60.90
9538;BME280;4807;48.024;11.726;2022-10-31T14:52:20;95077.09;;;18.62;60.98
9538;BME280;4807;48.024;11.726;2022-10-31T14:55:30;95068.75;;;18.64;61.32
9538;BME280;4807;48.024;11.726;2022-10-31T14:58:43;95060.56;;;18.59;60.89
9538;BME280;4807;48.024;11.726;2022-10-31T15:01:59;95061.13;;;18.44;61.16
9538;BME280;4807;48.024;11.726;2022-10-31T15:05:11;95064.72;;;18.33;61.80
9538;BME280;4807;48.024;11.726;2022-10-31T15:08:33;95058.44;;;18.11;63.28
9538;BME280;4807;48.024;11.726;2022-10-31T15:11:43;95057.31;;;17.90;63.89
9538;BME280;4807;48.024;11.726;2022-10-31T15:14:52;95056.78;;;17.76;64.15
9538;BME280;4807;48.024;11.726;2022-10-31T15:18:05;95040.94;;;17.63;64.67
9538;BME280;4807;48.024;11.726;2022-10-31T15:21:15;95042.59;;;17.52;65.50
9538;BME280;4807;48.024;11.726;2022-10-31T15:24:30;95045.94;;;17.43;65.92
9538;BME280;4807;48.024;11.726;2022-10-31T15:27:41;95046.88;;;17.37;65.99
9538;BME280;4807;48.024;11.726;2022-10-31T15:30:55;95051.94;;;17.33;66.34
9538;BME280;4807;48.024;11.726;2022-10-31T15:34:20;95048.22;;;17.23;66.44
9538;BME280;4807;48.024;11.726;2022-10-31T15:37:41;95043.22;;;17.14;67.60
9538;BME280;4807;48.024;11.726;2022-10-31T15:41:24;95041.28;;;16.98;67.43
9538;BME280;4807;48.024;11.726;2022-10-31T15:44:40;95034.53;;;16.84;68.13
9538;BME280;4807;48.024;11.726;2022-10-31T15:47:56;95033.88;;;16.65;68.62
9538;BME280;4807;48.024;11.726;2022-10-31T15:51:07;95033.63;;;16.44;69.48
9538;BME280;4807;48.024;11.726;2022-10-31T15:54:15;95037.47;;;16.24;70.51
9538;BME280;4807;48.024;11.726;2022-10-31T15:57:24;95034.69;;;16.19;70.49
9538;BME280;4807;48.024;11.726;2022-10-31T16:00:37;95030.47;;;16.00;71.24
9538;BME280;4807;48.024;11.726;2022-10-31T16:03:59;95042.59;;;15.91;71.35
9538;BME280;4807;48.024;11.726;2022-10-31T16:07:25;95041.72;;;15.67;72.19
9538;BME280;4807;48.024;11.726;2022-10-31T16:10:47;95037.22;;;15.49;72.42
9538;BME280;4807;48.024;11.726;2022-10-31T16:14:00;95040.09;;;15.36;72.78
9538;BME280;4807;48.024;11.726;2022-10-31T16:17:13;95037.13;;;15.26;73.43
9538;BME280;4807;48.024;11.726;2022-10-31T16:20:27;95042.00;;;15.17;74.21
9538;BME280;4807;48.024;11.726;2022-10-31T16:23:51;95045.09;;;15.03;74.54
9538;BME280;4807;48.024;11.726;2022-10-31T16:27:17;95041.38;;;14.85;74.50
9538;BME280;4807;48.024;11.726;2022-10-31T16:30:38;95036.06;;;14.67;75.07
9538;BME280;4807;48.024;11.726;2022-10-31T16:34:03;95039.91;;;14.53;75.59
9538;BME280;4807;48.024;11.726;2022-10-31T16:37:12;95050.13;;;14.38;76.02
9538;BME280;4807;48.024;11.726;2022-10-31T16:40:22;95043.69;;;14.45;76.06
9538;BME280;4807;48.024;11.726;2022-10-31T16:43:31;95051.31;;;14.24;76.75
9538;BME280;4807;48.024;11.726;2022-10-31T16:46:40;95055.31;;;14.14;77.05
9538;BME280;4807;48.024;11.726;2022-10-31T16:49:52;95055.72;;;13.93;77.59
9538;BME280;4807;48.024;11.726;2022-10-31T16:53:01;95059.34;;;13.74;78.52
9538;BME280;4807;48.024;11.726;2022-10-31T16:56:31;95056.00;;;13.54;79.18
9538;BME280;4807;48.024;11.726;2022-10-31T16:59:57;95055.25;;;13.40;79.50
9538;BME280;4807;48.024;11.726;2022-10-31T17:03:08;95056.81;;;13.54;80.09
9538;BME280;4807;48.024;11.726;2022-10-31T17:06:17;95064.19;;;13.59;78.85
9538;BME280;4807;48.024;11.726;2022-10-31T17:09:25;95058.91;;;13.14;80.68
9538;BME280;4807;48.024;11.726;2022-10-31T17:12:36;95063.22;;;13.09;80.60
9538;BME280;4807;48.024;11.726;2022-10-31T17:15:50;95068.69;;;12.89;80.58
9538;BME280;4807;48.024;11.726;2022-10-31T17:18:59;95062.16;;;12.65;81.23
9538;BME280;4807;48.024;11.726;2022-10-31T17:22:10;95063.25;;;12.51;81.17
9538;BME280;4807;48.024;11.726;2022-10-31T17:25:21;95065.75;;;12.39;81.76
9538;BME280;4807;48.024;11.726;2022-10-31T17:28:34;95064.72;;;12.34;82.28
9538;BME280;4807;48.024;11.726;2022-10-31T17:31:48;95056.53;;;12.22;82.29
9538;BME280;4807;48.024;11.726;2022-10-31T17:34:56;95061.66;;;12.17;82.93
9538;BME280;4807;48.024;11.726;2022-10-31T17:38:04;95061.28;;;12.13;83.39
9538;BME280;4807;48.024;11.726;2022-10-31T17:41:13;95053.28;;;12.07;83.02
9538;BME280;4807;48.024;11.726;2022-10-31T17:44:22;95055.34;;;11.98;82.60
9538;BME280;4807;48.024;11.726;2022-10-31T17:47:31;95056.16;;;12.05;82.96
9538;BME280;4807;48.024;11.726;2022-10-31T17:50:40;95053.28;;;12.13;83.00